Terminal Aerodrome Forecast
Issued by NWS

Home | Current Version | Previous Version | Text Only | Print | Product List | Glossary Off
Versions: 1 2 3 4 5 6 7 8 9 10 11 12 13 14 15 16 17 18 19 20 21

000
FTUS43 KTOP 030700 AAA
TAFMHK
TAF AMD
KMHK 030749Z 0308/0406 19013KT 5SM BR OVC008
      TEMPO 0308/0312 2SM -DZ BR OVC004
     FM031200 23013G21KT 6SM -DZ BR BKN020 OVC120
     FM031400 25015G25KT P6SM SCT030
     FM032000 35015G25KT P6SM BKN030=

USA.gov is the U.S. government's official web portal to all federal, state and local government web resources and services.